»·PEaware :: SWA1111 KSAN-KLAS

SWA1111 :: KSAN-KLAS

FLIGHT INFORMATION

Flight Status: Arrived
Operator:
Southwest Airlines
More flights by this operator :: More flights under this callsign
Pilot: Mark O. (17442)
Aircraft: BOEING 737-800
(B738)
More flights by this aircraft type
Origin: KSAN San Diego Intl-Lindbergh
United States
Destination: KLAS McCarran Intl
United States
More flights between these airports :: More routes between these airports
Route: PADRZ2 CHKNN SEBBY YELAH MISEN KEPEC6
File this flight plan on PilotEdge
Remarks:
Altitude:
(Current/Filed)
29,000ft
Speed:
(Current/Filed)
430kts
Departed: 29-Apr-18 06:25 PM
Arrived: 29-Apr-18 07:25 PM
Distance/Time
Traveled:
225nm/1:00
Distance/Time
To Go:
Arrived

Flight Plot

Page will automatically refresh every two minutes.

Flight plan parsing failed; only flown route is shown


Map Options




Map Legend


Flown Route
Filed Route
Departure Airport
Arrival Airport
Navaid (VOR, NDB)
Fix

Horizontal Profiles

Position Reports

Time Latitude Longitude Heading Altitude Ground
Speed
29-Apr-18 17:36 32.732852 -117.201826 82 17ft 0kts
29-Apr-18 17:37 32.732852 -117.201826 82 17ft 0kts
29-Apr-18 17:38 32.732852 -117.201826 82 17ft 0kts
29-Apr-18 17:39 32.732852 -117.201826 82 17ft 0kts
29-Apr-18 17:40 32.732852 -117.201826 82 17ft 0kts
29-Apr-18 17:41 32.732852 -117.201826 82 17ft 0kts
29-Apr-18 17:42 32.732852 -117.201826 82 17ft 0kts
29-Apr-18 17:43 32.732852 -117.201826 82 17ft 0kts
29-Apr-18 17:44 32.732852 -117.201826 82 17ft 0kts
29-Apr-18 17:45 32.732852 -117.201826 82 17ft 0kts
29-Apr-18 17:46 32.732852 -117.201826 82 17ft 0kts
29-Apr-18 17:47 32.732852 -117.201826 82 17ft 0kts
29-Apr-18 17:48 32.732852 -117.201826 82 17ft 0kts
29-Apr-18 17:49 32.732852 -117.201826 82 17ft 0kts
29-Apr-18 17:50 32.732852 -117.201826 82 17ft 0kts
29-Apr-18 17:51 32.732852 -117.201826 82 17ft 0kts
29-Apr-18 17:52 32.732852 -117.201826 82 17ft 0kts
29-Apr-18 17:53 32.732852 -117.201826 82 17ft 0kts
29-Apr-18 17:54 32.732852 -117.201826 82 17ft 0kts
29-Apr-18 17:55 32.732852 -117.201826 82 17ft 0kts
29-Apr-18 17:56 32.732852 -117.201826 82 17ft 0kts
29-Apr-18 17:57 32.732852 -117.201826 82 17ft 0kts
29-Apr-18 17:58 32.732852 -117.201826 82 17ft 0kts
29-Apr-18 17:59 32.732852 -117.201826 82 17ft 0kts
29-Apr-18 18:00 32.732852 -117.201826 82 17ft 0kts
29-Apr-18 18:01 32.732852 -117.201826 82 17ft 0kts
29-Apr-18 18:02 32.732852 -117.201826 82 17ft 0kts
29-Apr-18 18:03 32.732852 -117.201826 82 17ft 0kts
29-Apr-18 18:04 32.732852 -117.201826 82 17ft 0kts
29-Apr-18 18:05 32.732852 -117.201826 82 17ft 0kts
29-Apr-18 18:06 32.732852 -117.201826 82 17ft 0kts
29-Apr-18 18:07 32.732852 -117.201826 82 17ft 0kts
29-Apr-18 18:08 32.732852 -117.201826 82 17ft 0kts
29-Apr-18 18:09 32.732852 -117.201826 82 17ft 0kts
29-Apr-18 18:10 32.732852 -117.201826 82 17ft 0kts
29-Apr-18 18:11 32.732852 -117.201826 82 17ft 0kts
29-Apr-18 18:12 32.732852 -117.201826 82 17ft 0kts
29-Apr-18 18:13 32.732852 -117.201825 82 17ft 0kts
29-Apr-18 18:14 32.732852 -117.201825 82 17ft 0kts
29-Apr-18 18:15 32.732847 -117.201868 84 17ft 2kts
29-Apr-18 18:16 32.732606 -117.202622 29 17ft 0kts
29-Apr-18 18:17 32.732653 -117.202593 25 17ft 0kts
29-Apr-18 18:18 32.735283 -117.202153 51 17ft 29kts
29-Apr-18 18:19 32.733841 -117.195068 105 21ft 31kts
29-Apr-18 18:20 32.732234 -117.188412 107 19ft 27kts
29-Apr-18 18:21 32.730517 -117.181335 106 17ft 30kts
29-Apr-18 18:22 32.729509 -117.176955 83 22ft 0kts
29-Apr-18 18:23 32.729513 -117.176913 82 22ft 2kts
29-Apr-18 18:24 32.731213 -117.179992 285 20ft 98kts
29-Apr-18 18:25 32.742834 -117.221679 287 2001ft 192kts
29-Apr-18 18:26 32.778344 -117.283993 304 4432ft 248kts
29-Apr-18 18:27 32.819761 -117.350115 305 7353ft 262kts
29-Apr-18 18:28 32.865967 -117.421683 303 10978ft 288kts
29-Apr-18 18:29 32.914834 -117.497478 305 14853ft 295kts
29-Apr-18 18:30 32.964267 -117.574757 305 14949ft 295kts
29-Apr-18 18:31 33.013564 -117.651760 304 15178ft 293kts
29-Apr-18 18:32 33.063905 -117.730453 304 18297ft 303kts
29-Apr-18 18:33 33.127171 -117.796715 313 20867ft 321kts
29-Apr-18 18:34 33.196322 -117.866296 313 23254ft 335kts
29-Apr-18 18:35 33.269178 -117.937048 315 25483ft 345kts
29-Apr-18 18:36 33.344338 -118.010030 314 27494ft 354kts
29-Apr-18 18:37 33.420016 -118.083993 314 29075ft 364kts
29-Apr-18 18:38 33.501568 -118.164441 315 28999ft 399kts
29-Apr-18 18:39 33.581196 -118.240687 321 29042ft 411kts
29-Apr-18 18:40 33.682130 -118.296434 328 28990ft 417kts
29-Apr-18 18:41 33.789488 -118.290692 30 28987ft 488kts
29-Apr-18 18:42 33.856256 -118.173858 49 28990ft 507kts
29-Apr-18 18:43 33.926626 -118.054210 48 28992ft 507kts
29-Apr-18 18:44 33.995220 -117.937809 48 28969ft 507kts
29-Apr-18 18:45 34.071148 -117.809595 48 28994ft 507kts
29-Apr-18 18:46 34.153890 -117.680475 44 29000ft 506kts
29-Apr-18 18:47 34.241121 -117.550092 44 28975ft 506kts
29-Apr-18 18:48 34.329202 -117.418988 43 28975ft 506kts
29-Apr-18 18:49 34.416592 -117.290345 43 28963ft 504kts
29-Apr-18 18:50 34.506348 -117.158757 43 28963ft 504kts
29-Apr-18 18:51 34.595028 -117.028744 43 28978ft 500kts
29-Apr-18 18:52 34.683195 -116.898785 43 28980ft 501kts
29-Apr-18 18:53 34.767163 -116.774449 42 28689ft 456kts
29-Apr-18 18:54 34.845741 -116.658292 42 27787ft 436kts
29-Apr-18 18:55 34.935116 -116.564961 29 26037ft 423kts
29-Apr-18 18:56 35.025412 -116.477586 29 24276ft 411kts
29-Apr-18 18:57 35.109464 -116.395086 34 23749ft 396kts
29-Apr-18 18:58 35.183496 -116.303139 37 22111ft 377kts
29-Apr-18 18:59 35.255282 -116.212769 37 20493ft 365kts
29-Apr-18 19:00 35.324810 -116.125210 37 18908ft 354kts
29-Apr-18 19:01 35.392577 -116.039701 37 17507ft 346kts
29-Apr-18 19:02 35.458653 -115.956278 38 16108ft 339kts
29-Apr-18 19:03 35.523448 -115.874113 38 14886ft 332kts
29-Apr-18 19:04 35.585877 -115.794752 38 13714ft 326kts
29-Apr-18 19:05 35.648005 -115.715657 39 13015ft 322kts
29-Apr-18 19:06 35.709471 -115.637034 39 13000ft 321kts
29-Apr-18 19:07 35.777412 -115.574041 0 13008ft 295kts
29-Apr-18 19:08 35.858088 -115.568652 355 12973ft 291kts
29-Apr-18 19:09 35.938751 -115.563902 2 12962ft 296kts
29-Apr-18 19:10 35.994134 -115.494621 66 11919ft 300kts
29-Apr-18 19:11 36.024068 -115.400543 67 10943ft 296kts
29-Apr-18 19:12 36.029437 -115.308670 98 9991ft 294kts
29-Apr-18 19:13 36.021761 -115.221155 96 8948ft 288kts
29-Apr-18 19:15 36.016650 -115.152727 97 8634ft 281kts
29-Apr-18 19:16 36.011756 -115.084175 98 7980ft 261kts
29-Apr-18 19:17 36.006651 -115.002721 98 7978ft 252kts
29-Apr-18 19:18 36.012260 -114.919601 45 7176ft 267kts
29-Apr-18 19:19 36.067273 -114.942804 292 5481ft 242kts
29-Apr-18 19:20 36.081318 -115.006966 253 3865ft 227kts
29-Apr-18 19:21 36.073519 -115.047112 260 3717ft 150kts
29-Apr-18 19:22 36.073745 -115.075482 266 3016ft 137kts
29-Apr-18 19:23 36.073935 -115.101980 263 2494ft 125kts
29-Apr-18 19:24 36.073681 -115.131082 263 2064ft 120kts
29-Apr-18 19:25 36.074426 -115.145309 298 2101ft 36kts
29-Apr-18 19:25 36.077970 -115.147379 319 2103ft 25kts
29-Apr-18 19:26 36.081439 -115.149482 335 2103ft 18kts
29-Apr-18 19:27 36.082732 -115.150290 278 2103ft 1kts
29-Apr-18 19:28 36.082734 -115.150308 278 2103ft 0kts
29-Apr-18 19:29 36.082734 -115.150308 278 2103ft 0kts
29-Apr-18 19:30 36.082734 -115.150308 278 2103ft 0kts
29-Apr-18 19:31 36.082734 -115.150308 278 2103ft 0kts
29-Apr-18 19:32 36.082734 -115.150308 278 2103ft 0kts
29-Apr-18 19:33 36.082734 -115.150308 278 2103ft 0kts
29-Apr-18 19:34 36.082734 -115.150308 278 2103ft 0kts
29-Apr-18 19:35 36.082734 -115.150308 278 2103ft 0kts
29-Apr-18 19:36 36.082734 -115.150308 278 2103ft 0kts
29-Apr-18 19:37 36.082734 -115.150308 278 2103ft 0kts
29-Apr-18 19:38 36.082734 -115.150308 278 2103ft 0kts

Navigation Log

Ident Type
Flight plan parsing failed, navigation log unavailable